Amherst, MA (01004)

8:22 AM EDT on September 02, 2015 (GMT -0400)
Amherst College | | Change Station
CLOSE
Current Station
Personal Weather Station
Location: Amherst, MA
Elevation: 348 ft
Nearby Weather Stations

Elev 348 ft 42.37 °N, 72.52 °W | Updated 9 minutes ago

Partly Cloudy
Partly Cloudy
63.3 °F
Feels Like 63.3 °F
N
0.0
Wind Variable Wind from North

Today
High -- | Low -- °F
--% Chance of Precip.
Yesterday
High -- | Low -- °F
Precip. -- in
6:15 AM 7:22 PM
Waning Gibbous, 80% visible
Pressure 30.04 in
Visibility 4.0 miles
Clouds Clear
Dew Point 60 °F
Humidity 90%
Rainfall 0.02 in
Snow Depth Not available.
UV 1 out of 12
Pollen 9.40 out of 12
Air Quality Not available.
Flu Activity Not available.
METAR KCEF 021158Z 00000KT 4SM BR CLR 16/16 A3002 RMK AO2A SLP171 T01610157 10161 20128 52005
Pressure 30.04 in
Visibility 4.0 miles
Clouds Clear
Dew Point 60 °F
Humidity 90%
Rainfall 0.02 in
Snow Depth Not available.
UV 1 out of 12
Pollen 9.40 out of 12
Air Quality Not available.
Flu Activity Not available.
METAR KCEF 021158Z 00000KT 4SM BR CLR 16/16 A3002 RMK AO2A SLP171 T01610157 10161 20128 52005

10-Day Weather Forecast

×

Almanac

Astronomy

Sep. 02, 2015 Rise Set
Actual Time
Civil Twilight
Nautical Twilight
Astronomical Twilight
Moon
Length of Visible Light
Length of Day
Tomorrow will be .
, % of the Moon is Illuminated

Today's Extremes

State Highs State Lows

Community

WunderPhotos

Upload Photos

1,851,738 photos uploaded!

WunderBlogs® & News

Nearby

Air Quality

  Air Quality AQ Index Pollutant
Not available.

Snow Depth

Station Depth Elevation

Earthquake Activity

City Distance Mag. Time & Date
Minimum magnitude displayed is 2.5.

Coastal Water Temperatures

Place Temperature

Stations

Nearby Weather Stations

Station Location Temp. Windchill Dew Point Humidity Wind Precip. Elev Updated Type